sensor_id;sensor_type;location;lat;lon;timestamp;P1;durP1;ratioP1;P2;durP2;ratioP2
9716;SDS011;4897;43.570;27.832;2022-12-29T00:00:03;7.15;;;4.20;;
9716;SDS011;4897;43.570;27.832;2022-12-29T00:02:30;5.75;;;3.70;;
9716;SDS011;4897;43.570;27.832;2022-12-29T00:04:57;6.18;;;3.35;;
9716;SDS011;4897;43.570;27.832;2022-12-29T00:07:25;6.28;;;3.00;;
9716;SDS011;4897;43.570;27.832;2022-12-29T00:09:52;6.88;;;2.80;;
9716;SDS011;4897;43.570;27.832;2022-12-29T00:12:19;6.63;;;2.85;;
9716;SDS011;4897;43.570;27.832;2022-12-29T00:14:46;5.13;;;2.35;;
9716;SDS011;4897;43.570;27.832;2022-12-29T00:17:30;4.25;;;2.50;;
9716;SDS011;4897;43.570;27.832;2022-12-29T00:19:56;5.70;;;2.55;;
9716;SDS011;4897;43.570;27.832;2022-12-29T00:22:42;4.28;;;2.30;;
9716;SDS011;4897;43.570;27.832;2022-12-29T00:25:26;4.03;;;2.50;;
9716;SDS011;4897;43.570;27.832;2022-12-29T00:28:11;4.90;;;2.60;;
9716;SDS011;4897;43.570;27.832;2022-12-29T00:30:58;4.78;;;2.40;;
9716;SDS011;4897;43.570;27.832;2022-12-29T00:33:43;3.38;;;2.05;;
9716;SDS011;4897;43.570;27.832;2022-12-29T00:36:27;2.78;;;2.00;;
9716;SDS011;4897;43.570;27.832;2022-12-29T00:38:59;5.45;;;2.25;;
9716;SDS011;4897;43.570;27.832;2022-12-29T00:41:46;8.00;;;2.33;;
9716;SDS011;4897;43.570;27.832;2022-12-29T00:44:31;5.20;;;2.03;;
9716;SDS011;4897;43.570;27.832;2022-12-29T00:46:58;6.50;;;2.38;;
9716;SDS011;4897;43.570;27.832;2022-12-29T00:49:27;5.65;;;2.22;;
9716;SDS011;4897;43.570;27.832;2022-12-29T00:51:56;5.47;;;1.92;;
9716;SDS011;4897;43.570;27.832;2022-12-29T00:54:26;4.10;;;1.98;;
9716;SDS011;4897;43.570;27.832;2022-12-29T00:56:54;5.80;;;2.22;;
9716;SDS011;4897;43.570;27.832;2022-12-29T00:59:21;6.20;;;2.20;;
9716;SDS011;4897;43.570;27.832;2022-12-29T01:01:49;5.03;;;2.00;;
9716;SDS011;4897;43.570;27.832;2022-12-29T01:04:17;2.80;;;1.67;;
9716;SDS011;4897;43.570;27.832;2022-12-29T01:06:45;2.45;;;1.80;;
9716;SDS011;4897;43.570;27.832;2022-12-29T01:09:12;8.60;;;1.88;;
9716;SDS011;4897;43.570;27.832;2022-12-29T01:11:57;5.18;;;1.60;;
9716;SDS011;4897;43.570;27.832;2022-12-29T01:14:24;3.85;;;1.90;;
9716;SDS011;4897;43.570;27.832;2022-12-29T01:16:52;4.28;;;2.00;;
9716;SDS011;4897;43.570;27.832;2022-12-29T01:19:19;7.03;;;2.33;;
9716;SDS011;4897;43.570;27.832;2022-12-29T01:21:46;3.92;;;2.10;;
9716;SDS011;4897;43.570;27.832;2022-12-29T01:24:13;3.05;;;1.88;;
9716;SDS011;4897;43.570;27.832;2022-12-29T01:26:41;5.03;;;1.80;;
9716;SDS011;4897;43.570;27.832;2022-12-29T01:29:09;2.75;;;1.73;;
9716;SDS011;4897;43.570;27.832;2022-12-29T01:31:36;5.20;;;1.92;;
9716;SDS011;4897;43.570;27.832;2022-12-29T01:34:03;4.00;;;1.70;;
9716;SDS011;4897;43.570;27.832;2022-12-29T01:36:31;3.60;;;2.00;;
9716;SDS011;4897;43.570;27.832;2022-12-29T01:38:58;6.05;;;1.98;;
9716;SDS011;4897;43.570;27.832;2022-12-29T01:41:25;5.63;;;2.20;;
9716;SDS011;4897;43.570;27.832;2022-12-29T01:43:53;6.70;;;2.35;;
9716;SDS011;4897;43.570;27.832;2022-12-29T01:46:24;4.00;;;2.03;;
9716;SDS011;4897;43.570;27.832;2022-12-29T01:48:55;4.82;;;2.15;;
9716;SDS011;4897;43.570;27.832;2022-12-29T01:51:29;5.13;;;2.22;;
9716;SDS011;4897;43.570;27.832;2022-12-29T01:54:00;5.95;;;2.00;;
9716;SDS011;4897;43.570;27.832;2022-12-29T01:56:30;3.92;;;2.20;;
9716;SDS011;4897;43.570;27.832;2022-12-29T01:58:59;4.50;;;2.05;;
9716;SDS011;4897;43.570;27.832;2022-12-29T02:01:30;3.30;;;1.65;;
9716;SDS011;4897;43.570;27.832;2022-12-29T02:03:57;4.63;;;1.83;;
9716;SDS011;4897;43.570;27.832;2022-12-29T02:06:26;2.47;;;1.85;;
9716;SDS011;4897;43.570;27.832;2022-12-29T02:08:55;7.43;;;1.98;;
9716;SDS011;4897;43.570;27.832;2022-12-29T02:11:23;3.00;;;1.67;;
9716;SDS011;4897;43.570;27.832;2022-12-29T02:13:52;5.25;;;2.03;;
9716;SDS011;4897;43.570;27.832;2022-12-29T02:16:31;3.70;;;1.77;;
9716;SDS011;4897;43.570;27.832;2022-12-29T02:19:28;7.65;;;1.95;;
9716;SDS011;4897;43.570;27.832;2022-12-29T02:22:21;2.95;;;1.70;;
9716;SDS011;4897;43.570;27.832;2022-12-29T02:27:54;3.13;;;1.88;;
9716;SDS011;4897;43.570;27.832;2022-12-29T02:33:33;4.93;;;1.98;;
9716;SDS011;4897;43.570;27.832;2022-12-29T02:36:12;3.72;;;2.00;;
9716;SDS011;4897;43.570;27.832;2022-12-29T02:38:50;4.63;;;2.10;;
9716;SDS011;4897;43.570;27.832;2022-12-29T02:41:28;3.60;;;1.90;;
9716;SDS011;4897;43.570;27.832;2022-12-29T02:44:00;6.38;;;2.40;;
9716;SDS011;4897;43.570;27.832;2022-12-29T02:46:36;4.22;;;1.88;;
9716;SDS011;4897;43.570;27.832;2022-12-29T02:49:09;4.60;;;2.40;;
9716;SDS011;4897;43.570;27.832;2022-12-29T02:51:43;4.32;;;1.90;;
9716;SDS011;4897;43.570;27.832;2022-12-29T02:54:13;5.78;;;2.00;;
9716;SDS011;4897;43.570;27.832;2022-12-29T02:56:59;3.97;;;2.05;;
9716;SDS011;4897;43.570;27.832;2022-12-29T02:59:26;5.35;;;2.70;;
9716;SDS011;4897;43.570;27.832;2022-12-29T03:02:00;4.38;;;1.92;;
9716;SDS011;4897;43.570;27.832;2022-12-29T03:04:51;8.50;;;2.42;;
9716;SDS011;4897;43.570;27.832;2022-12-29T03:07:35;3.40;;;2.30;;
9716;SDS011;4897;43.570;27.832;2022-12-29T03:10:14;4.60;;;2.55;;
9716;SDS011;4897;43.570;27.832;2022-12-29T03:12:53;4.32;;;2.17;;
9716;SDS011;4897;43.570;27.832;2022-12-29T03:15:44;5.22;;;2.50;;
9716;SDS011;4897;43.570;27.832;2022-12-29T03:18:32;7.22;;;2.25;;
9716;SDS011;4897;43.570;27.832;2022-12-29T03:21:07;4.95;;;2.45;;
9716;SDS011;4897;43.570;27.832;2022-12-29T03:23:38;6.28;;;2.20;;
9716;SDS011;4897;43.570;27.832;2022-12-29T03:26:08;7.53;;;2.17;;
9716;SDS011;4897;43.570;27.832;2022-12-29T03:28:38;4.03;;;2.38;;
9716;SDS011;4897;43.570;27.832;2022-12-29T03:31:08;4.75;;;2.28;;
9716;SDS011;4897;43.570;27.832;2022-12-29T03:33:38;4.68;;;2.83;;
9716;SDS011;4897;43.570;27.832;2022-12-29T03:36:10;7.57;;;4.05;;
9716;SDS011;4897;43.570;27.832;2022-12-29T03:38:41;7.65;;;4.32;;
9716;SDS011;4897;43.570;27.832;2022-12-29T03:41:13;7.80;;;4.60;;
9716;SDS011;4897;43.570;27.832;2022-12-29T03:43:46;9.60;;;4.47;;
9716;SDS011;4897;43.570;27.832;2022-12-29T03:46:13;11.48;;;5.15;;
9716;SDS011;4897;43.570;27.832;2022-12-29T03:48:41;9.73;;;5.35;;
9716;SDS011;4897;43.570;27.832;2022-12-29T03:51:08;10.55;;;4.85;;
9716;SDS011;4897;43.570;27.832;2022-12-29T03:53:35;5.38;;;3.78;;
9716;SDS011;4897;43.570;27.832;2022-12-29T03:56:02;7.75;;;4.45;;
9716;SDS011;4897;43.570;27.832;2022-12-29T03:58:29;6.57;;;3.70;;
9716;SDS011;4897;43.570;27.832;2022-12-29T04:00:56;7.72;;;4.18;;
9716;SDS011;4897;43.570;27.832;2022-12-29T04:03:23;12.57;;;4.43;;
9716;SDS011;4897;43.570;27.832;2022-12-29T04:05:52;9.10;;;4.65;;
9716;SDS011;4897;43.570;27.832;2022-12-29T04:08:18;9.13;;;4.40;;
9716;SDS011;4897;43.570;27.832;2022-12-29T04:10:45;14.43;;;4.93;;
9716;SDS011;4897;43.570;27.832;2022-12-29T04:13:14;8.85;;;4.70;;
9716;SDS011;4897;43.570;27.832;2022-12-29T04:15:40;6.57;;;4.38;;
9716;SDS011;4897;43.570;27.832;2022-12-29T04:18:09;5.22;;;3.70;;
9716;SDS011;4897;43.570;27.832;2022-12-29T04:20:36;6.40;;;3.13;;
9716;SDS011;4897;43.570;27.832;2022-12-29T04:23:21;7.75;;;3.20;;
9716;SDS011;4897;43.570;27.832;2022-12-29T04:25:48;7.15;;;3.20;;
9716;SDS011;4897;43.570;27.832;2022-12-29T04:28:15;6.78;;;3.08;;
9716;SDS011;4897;43.570;27.832;2022-12-29T04:30:43;6.07;;;3.75;;
9716;SDS011;4897;43.570;27.832;2022-12-29T04:33:10;7.80;;;4.20;;
9716;SDS011;4897;43.570;27.832;2022-12-29T04:35:37;7.70;;;4.60;;
9716;SDS011;4897;43.570;27.832;2022-12-29T04:38:04;11.43;;;5.78;;
9716;SDS011;4897;43.570;27.832;2022-12-29T04:40:32;13.55;;;6.38;;
9716;SDS011;4897;43.570;27.832;2022-12-29T04:42:59;15.48;;;5.97;;
9716;SDS011;4897;43.570;27.832;2022-12-29T04:45:26;11.68;;;6.35;;
9716;SDS011;4897;43.570;27.832;2022-12-29T04:47:52;16.48;;;7.15;;
9716;SDS011;4897;43.570;27.832;2022-12-29T04:50:19;18.52;;;7.60;;
9716;SDS011;4897;43.570;27.832;2022-12-29T04:52:46;13.32;;;7.45;;
9716;SDS011;4897;43.570;27.832;2022-12-29T04:55:13;19.52;;;9.35;;
9716;SDS011;4897;43.570;27.832;2022-12-29T04:57:41;18.45;;;8.57;;
9716;SDS011;4897;43.570;27.832;2022-12-29T05:00:09;14.75;;;8.18;;
9716;SDS011;4897;43.570;27.832;2022-12-29T05:02:36;14.20;;;7.20;;
9716;SDS011;4897;43.570;27.832;2022-12-29T05:05:04;12.98;;;6.72;;
9716;SDS011;4897;43.570;27.832;2022-12-29T05:07:31;13.57;;;7.45;;
9716;SDS011;4897;43.570;27.832;2022-12-29T05:09:59;12.82;;;7.20;;
9716;SDS011;4897;43.570;27.832;2022-12-29T05:12:29;11.07;;;6.65;;
9716;SDS011;4897;43.570;27.832;2022-12-29T05:14:59;13.13;;;6.95;;
9716;SDS011;4897;43.570;27.832;2022-12-29T05:17:27;14.30;;;6.45;;
9716;SDS011;4897;43.570;27.832;2022-12-29T05:19:55;12.48;;;7.07;;
9716;SDS011;4897;43.570;27.832;2022-12-29T05:22:23;15.15;;;7.55;;
9716;SDS011;4897;43.570;27.832;2022-12-29T05:24:50;15.50;;;7.55;;
9716;SDS011;4897;43.570;27.832;2022-12-29T05:27:17;16.52;;;8.35;;
9716;SDS011;4897;43.570;27.832;2022-12-29T05:29:44;17.10;;;9.43;;
9716;SDS011;4897;43.570;27.832;2022-12-29T05:32:12;21.55;;;11.20;;
9716;SDS011;4897;43.570;27.832;2022-12-29T05:34:39;16.67;;;8.00;;
9716;SDS011;4897;43.570;27.832;2022-12-29T05:37:06;13.88;;;8.10;;
9716;SDS011;4897;43.570;27.832;2022-12-29T05:39:33;13.75;;;8.10;;
9716;SDS011;4897;43.570;27.832;2022-12-29T05:42:00;19.95;;;11.07;;
9716;SDS011;4897;43.570;27.832;2022-12-29T05:44:27;26.45;;;15.10;;
9716;SDS011;4897;43.570;27.832;2022-12-29T05:46:53;36.28;;;17.58;;
9716;SDS011;4897;43.570;27.832;2022-12-29T05:49:22;28.77;;;15.23;;
9716;SDS011;4897;43.570;27.832;2022-12-29T05:51:49;19.00;;;12.23;;
9716;SDS011;4897;43.570;27.832;2022-12-29T05:54:15;21.38;;;11.82;;
9716;SDS011;4897;43.570;27.832;2022-12-29T05:56:42;30.05;;;9.88;;
9716;SDS011;4897;43.570;27.832;2022-12-29T05:59:09;19.60;;;10.05;;
9716;SDS011;4897;43.570;27.832;2022-12-29T06:01:36;15.65;;;8.93;;
9716;SDS011;4897;43.570;27.832;2022-12-29T06:04:03;13.27;;;7.60;;
9716;SDS011;4897;43.570;27.832;2022-12-29T06:06:31;12.98;;;6.53;;
9716;SDS011;4897;43.570;27.832;2022-12-29T06:08:58;9.77;;;5.57;;
9716;SDS011;4897;43.570;27.832;2022-12-29T06:11:25;8.15;;;4.15;;
9716;SDS011;4897;43.570;27.832;2022-12-29T06:13:52;6.10;;;4.13;;
9716;SDS011;4897;43.570;27.832;2022-12-29T06:16:19;9.82;;;4.88;;
9716;SDS011;4897;43.570;27.832;2022-12-29T06:18:45;7.40;;;4.85;;
9716;SDS011;4897;43.570;27.832;2022-12-29T06:21:12;23.58;;;14.13;;
9716;SDS011;4897;43.570;27.832;2022-12-29T06:23:40;64.20;;;31.25;;
9716;SDS011;4897;43.570;27.832;2022-12-29T06:26:07;44.60;;;27.45;;
9716;SDS011;4897;43.570;27.832;2022-12-29T06:28:34;65.70;;;41.80;;
9716;SDS011;4897;43.570;27.832;2022-12-29T06:31:01;65.18;;;35.20;;
9716;SDS011;4897;43.570;27.832;2022-12-29T06:33:28;56.20;;;28.02;;
9716;SDS011;4897;43.570;27.832;2022-12-29T06:35:55;18.40;;;10.65;;
9716;SDS011;4897;43.570;27.832;2022-12-29T06:38:22;16.33;;;8.30;;
9716;SDS011;4897;43.570;27.832;2022-12-29T06:40:53;24.58;;;11.20;;
9716;SDS011;4897;43.570;27.832;2022-12-29T06:43:20;22.67;;;13.18;;
9716;SDS011;4897;43.570;27.832;2022-12-29T06:45:47;26.02;;;14.93;;
9716;SDS011;4897;43.570;27.832;2022-12-29T06:48:14;26.50;;;15.30;;
9716;SDS011;4897;43.570;27.832;2022-12-29T06:50:41;26.33;;;12.90;;
9716;SDS011;4897;43.570;27.832;2022-12-29T06:53:07;23.90;;;11.48;;
9716;SDS011;4897;43.570;27.832;2022-12-29T06:55:34;21.65;;;10.82;;
9716;SDS011;4897;43.570;27.832;2022-12-29T06:58:02;17.15;;;10.15;;
9716;SDS011;4897;43.570;27.832;2022-12-29T07:00:29;27.67;;;14.60;;
9716;SDS011;4897;43.570;27.832;2022-12-29T07:02:58;31.33;;;17.60;;
9716;SDS011;4897;43.570;27.832;2022-12-29T07:05:25;28.60;;;13.93;;
9716;SDS011;4897;43.570;27.832;2022-12-29T07:07:53;14.10;;;6.55;;
9716;SDS011;4897;43.570;27.832;2022-12-29T07:10:20;11.85;;;7.20;;
9716;SDS011;4897;43.570;27.832;2022-12-29T07:12:47;9.43;;;5.30;;
9716;SDS011;4897;43.570;27.832;2022-12-29T07:15:15;7.45;;;3.92;;
9716;SDS011;4897;43.570;27.832;2022-12-29T07:17:42;7.28;;;4.30;;
9716;SDS011;4897;43.570;27.832;2022-12-29T07:20:09;6.30;;;4.00;;
9716;SDS011;4897;43.570;27.832;2022-12-29T07:22:36;8.95;;;4.50;;
9716;SDS011;4897;43.570;27.832;2022-12-29T07:25:04;10.85;;;5.00;;
9716;SDS011;4897;43.570;27.832;2022-12-29T07:27:31;6.40;;;4.20;;
9716;SDS011;4897;43.570;27.832;2022-12-29T07:29:58;7.47;;;4.05;;
9716;SDS011;4897;43.570;27.832;2022-12-29T07:32:26;9.70;;;4.65;;
9716;SDS011;4897;43.570;27.832;2022-12-29T07:34:53;5.40;;;2.90;;
9716;SDS011;4897;43.570;27.832;2022-12-29T07:37:20;8.35;;;3.33;;
9716;SDS011;4897;43.570;27.832;2022-12-29T07:39:47;8.13;;;3.95;;
9716;SDS011;4897;43.570;27.832;2022-12-29T07:42:13;8.50;;;3.95;;
9716;SDS011;4897;43.570;27.832;2022-12-29T07:44:40;8.68;;;5.28;;
9716;SDS011;4897;43.570;27.832;2022-12-29T07:47:07;12.30;;;6.00;;
9716;SDS011;4897;43.570;27.832;2022-12-29T07:49:35;6.05;;;3.42;;
9716;SDS011;4897;43.570;27.832;2022-12-29T07:52:02;12.43;;;4.40;;
9716;SDS011;4897;43.570;27.832;2022-12-29T07:54:29;11.10;;;3.00;;
9716;SDS011;4897;43.570;27.832;2022-12-29T07:56:56;6.20;;;2.40;;
9716;SDS011;4897;43.570;27.832;2022-12-29T07:59:25;3.63;;;2.25;;
9716;SDS011;4897;43.570;27.832;2022-12-29T08:01:52;3.50;;;2.47;;
9716;SDS011;4897;43.570;27.832;2022-12-29T08:04:19;5.40;;;2.33;;
9716;SDS011;4897;43.570;27.832;2022-12-29T08:06:47;4.70;;;2.45;;
9716;SDS011;4897;43.570;27.832;2022-12-29T08:09:14;5.80;;;2.65;;
9716;SDS011;4897;43.570;27.832;2022-12-29T08:11:41;3.28;;;2.40;;
9716;SDS011;4897;43.570;27.832;2022-12-29T08:14:09;6.22;;;2.70;;
9716;SDS011;4897;43.570;27.832;2022-12-29T08:16:37;5.78;;;2.80;;
9716;SDS011;4897;43.570;27.832;2022-12-29T08:19:04;8.13;;;2.97;;
9716;SDS011;4897;43.570;27.832;2022-12-29T08:21:31;6.25;;;3.00;;
9716;SDS011;4897;43.570;27.832;2022-12-29T08:23:59;3.88;;;2.58;;
9716;SDS011;4897;43.570;27.832;2022-12-29T08:26:26;4.88;;;2.55;;
9716;SDS011;4897;43.570;27.832;2022-12-29T08:28:54;7.13;;;2.90;;
9716;SDS011;4897;43.570;27.832;2022-12-29T08:31:21;9.60;;;3.58;;
9716;SDS011;4897;43.570;27.832;2022-12-29T08:33:48;5.90;;;3.20;;
9716;SDS011;4897;43.570;27.832;2022-12-29T08:36:15;6.40;;;3.03;;
9716;SDS011;4897;43.570;27.832;2022-12-29T08:38:42;8.77;;;3.78;;
9716;SDS011;4897;43.570;27.832;2022-12-29T08:41:10;6.97;;;3.50;;
9716;SDS011;4897;43.570;27.832;2022-12-29T08:43:37;6.65;;;3.70;;
9716;SDS011;4897;43.570;27.832;2022-12-29T08:46:04;11.02;;;3.70;;
9716;SDS011;4897;43.570;27.832;2022-12-29T08:48:31;8.30;;;3.38;;
9716;SDS011;4897;43.570;27.832;2022-12-29T08:50:58;7.32;;;3.05;;
9716;SDS011;4897;43.570;27.832;2022-12-29T08:53:25;9.55;;;3.40;;
9716;SDS011;4897;43.570;27.832;2022-12-29T08:55:55;13.02;;;3.70;;
9716;SDS011;4897;43.570;27.832;2022-12-29T08:58:24;6.47;;;3.25;;
9716;SDS011;4897;43.570;27.832;2022-12-29T09:00:52;6.88;;;2.85;;
9716;SDS011;4897;43.570;27.832;2022-12-29T09:03:19;8.68;;;3.30;;
9716;SDS011;4897;43.570;27.832;2022-12-29T09:05:47;7.07;;;2.83;;
9716;SDS011;4897;43.570;27.832;2022-12-29T09:08:14;9.15;;;2.65;;
9716;SDS011;4897;43.570;27.832;2022-12-29T09:10:41;4.50;;;2.35;;
9716;SDS011;4897;43.570;27.832;2022-12-29T09:13:08;10.35;;;4.28;;
9716;SDS011;4897;43.570;27.832;2022-12-29T09:15:37;7.07;;;3.25;;
9716;SDS011;4897;43.570;27.832;2022-12-29T09:18:04;6.32;;;3.15;;
9716;SDS011;4897;43.570;27.832;2022-12-29T09:20:31;7.10;;;2.90;;
9716;SDS011;4897;43.570;27.832;2022-12-29T09:22:59;4.80;;;2.80;;
9716;SDS011;4897;43.570;27.832;2022-12-29T09:25:26;8.52;;;2.83;;
9716;SDS011;4897;43.570;27.832;2022-12-29T09:27:52;10.50;;;3.03;;
9716;SDS011;4897;43.570;27.832;2022-12-29T09:30:20;7.43;;;2.70;;
9716;SDS011;4897;43.570;27.832;2022-12-29T09:32:50;4.70;;;2.50;;
9716;SDS011;4897;43.570;27.832;2022-12-29T09:35:17;6.43;;;2.95;;
9716;SDS011;4897;43.570;27.832;2022-12-29T09:37:44;5.25;;;2.80;;
9716;SDS011;4897;43.570;27.832;2022-12-29T09:40:22;4.70;;;2.60;;
9716;SDS011;4897;43.570;27.832;2022-12-29T09:43:10;3.20;;;2.55;;
9716;SDS011;4897;43.570;27.832;2022-12-29T09:45:48;6.32;;;3.00;;
9716;SDS011;4897;43.570;27.832;2022-12-29T09:48:23;6.80;;;2.53;;
9716;SDS011;4897;43.570;27.832;2022-12-29T09:50:57;4.63;;;2.90;;
9716;SDS011;4897;43.570;27.832;2022-12-29T09:53:29;4.63;;;2.95;;
9716;SDS011;4897;43.570;27.832;2022-12-29T09:56:03;4.25;;;2.58;;
9716;SDS011;4897;43.570;27.832;2022-12-29T09:58:39;8.43;;;3.13;;
9716;SDS011;4897;43.570;27.832;2022-12-29T10:01:14;7.65;;;3.67;;
9716;SDS011;4897;43.570;27.832;2022-12-29T10:03:50;23.63;;;10.55;;
9716;SDS011;4897;43.570;27.832;2022-12-29T10:06:20;21.45;;;9.65;;
9716;SDS011;4897;43.570;27.832;2022-12-29T10:08:54;9.48;;;3.90;;
9716;SDS011;4897;43.570;27.832;2022-12-29T10:11:31;8.75;;;4.28;;
9716;SDS011;4897;43.570;27.832;2022-12-29T10:14:35;8.60;;;3.53;;
9716;SDS011;4897;43.570;27.832;2022-12-29T10:17:16;5.88;;;3.10;;
9716;SDS011;4897;43.570;27.832;2022-12-29T10:19:55;4.43;;;2.83;;
9716;SDS011;4897;43.570;27.832;2022-12-29T10:22:38;8.02;;;4.05;;
9716;SDS011;4897;43.570;27.832;2022-12-29T10:25:18;6.05;;;3.47;;
9716;SDS011;4897;43.570;27.832;2022-12-29T10:27:48;8.60;;;3.85;;
9716;SDS011;4897;43.570;27.832;2022-12-29T10:30:16;5.63;;;3.38;;
9716;SDS011;4897;43.570;27.832;2022-12-29T10:32:46;6.53;;;2.97;;
9716;SDS011;4897;43.570;27.832;2022-12-29T10:35:18;6.13;;;3.03;;
9716;SDS011;4897;43.570;27.832;2022-12-29T10:37:49;9.20;;;3.30;;
9716;SDS011;4897;43.570;27.832;2022-12-29T10:40:23;6.35;;;3.25;;
9716;SDS011;4897;43.570;27.832;2022-12-29T10:42:54;6.57;;;3.13;;
9716;SDS011;4897;43.570;27.832;2022-12-29T10:45:25;6.50;;;3.15;;
9716;SDS011;4897;43.570;27.832;2022-12-29T10:47:57;4.93;;;2.67;;
9716;SDS011;4897;43.570;27.832;2022-12-29T10:50:29;9.18;;;2.90;;
9716;SDS011;4897;43.570;27.832;2022-12-29T10:52:57;5.57;;;2.45;;
9716;SDS011;4897;43.570;27.832;2022-12-29T10:55:27;4.28;;;2.13;;
9716;SDS011;4897;43.570;27.832;2022-12-29T10:57:59;8.05;;;3.30;;
9716;SDS011;4897;43.570;27.832;2022-12-29T11:00:30;10.02;;;3.08;;
9716;SDS011;4897;43.570;27.832;2022-12-29T11:03:18;4.35;;;2.50;;
9716;SDS011;4897;43.570;27.832;2022-12-29T11:06:09;7.25;;;3.10;;
9716;SDS011;4897;43.570;27.832;2022-12-29T11:08:41;3.28;;;2.40;;
9716;SDS011;4897;43.570;27.832;2022-12-29T11:11:21;5.53;;;2.38;;
9716;SDS011;4897;43.570;27.832;2022-12-29T11:13:54;4.78;;;2.47;;
9716;SDS011;4897;43.570;27.832;2022-12-29T11:16:30;8.38;;;3.00;;
9716;SDS011;4897;43.570;27.832;2022-12-29T11:18:59;5.82;;;2.88;;
9716;SDS011;4897;43.570;27.832;2022-12-29T11:21:30;4.05;;;2.40;;
9716;SDS011;4897;43.570;27.832;2022-12-29T11:23:59;8.80;;;2.70;;
9716;SDS011;4897;43.570;27.832;2022-12-29T11:26:27;6.00;;;2.58;;
9716;SDS011;4897;43.570;27.832;2022-12-29T11:29:08;5.95;;;2.60;;
9716;SDS011;4897;43.570;27.832;2022-12-29T11:31:44;3.65;;;2.67;;
9716;SDS011;4897;43.570;27.832;2022-12-29T11:34:16;3.25;;;2.42;;
9716;SDS011;4897;43.570;27.832;2022-12-29T11:36:46;5.43;;;2.70;;
9716;SDS011;4897;43.570;27.832;2022-12-29T11:39:33;5.93;;;2.63;;
9716;SDS011;4897;43.570;27.832;2022-12-29T11:42:06;7.38;;;2.67;;
9716;SDS011;4897;43.570;27.832;2022-12-29T11:44:42;4.30;;;2.38;;
9716;SDS011;4897;43.570;27.832;2022-12-29T11:47:19;4.75;;;2.80;;
9716;SDS011;4897;43.570;27.832;2022-12-29T11:49:49;5.70;;;2.90;;
9716;SDS011;4897;43.570;27.832;2022-12-29T11:52:22;4.50;;;2.95;;
9716;SDS011;4897;43.570;27.832;2022-12-29T11:54:50;3.47;;;2.60;;
9716;SDS011;4897;43.570;27.832;2022-12-29T11:57:17;5.97;;;3.78;;
9716;SDS011;4897;43.570;27.832;2022-12-29T11:59:49;6.00;;;3.50;;
9716;SDS011;4897;43.570;27.832;2022-12-29T12:05:22;8.57;;;3.28;;
9716;SDS011;4897;43.570;27.832;2022-12-29T12:07:59;4.22;;;3.30;;
9716;SDS011;4897;43.570;27.832;2022-12-29T12:10:31;7.63;;;3.70;;
9716;SDS011;4897;43.570;27.832;2022-12-29T12:13:06;5.88;;;3.65;;
9716;SDS011;4897;43.570;27.832;2022-12-29T12:15:46;8.00;;;3.38;;
9716;SDS011;4897;43.570;27.832;2022-12-29T12:18:18;5.43;;;3.63;;
9716;SDS011;4897;43.570;27.832;2022-12-29T12:20:54;5.35;;;3.45;;
9716;SDS011;4897;43.570;27.832;2022-12-29T12:23:35;5.55;;;3.55;;
9716;SDS011;4897;43.570;27.832;2022-12-29T12:26:09;9.57;;;3.92;;
9716;SDS011;4897;43.570;27.832;2022-12-29T12:28:40;11.63;;;4.00;;
9716;SDS011;4897;43.570;27.832;2022-12-29T12:31:19;8.27;;;3.80;;
9716;SDS011;4897;43.570;27.832;2022-12-29T12:33:53;4.30;;;3.20;;
9716;SDS011;4897;43.570;27.832;2022-12-29T12:39:32;13.07;;;5.60;;
9716;SDS011;4897;43.570;27.832;2022-12-29T12:42:13;6.38;;;4.13;;
9716;SDS011;4897;43.570;27.832;2022-12-29T12:44:52;6.60;;;4.40;;
9716;SDS011;4897;43.570;27.832;2022-12-29T12:47:35;8.57;;;4.60;;
9716;SDS011;4897;43.570;27.832;2022-12-29T12:53:22;7.40;;;4.32;;
9716;SDS011;4897;43.570;27.832;2022-12-29T12:56:03;11.13;;;4.32;;
9716;SDS011;4897;43.570;27.832;2022-12-29T12:58:48;6.38;;;4.20;;
9716;SDS011;4897;43.570;27.832;2022-12-29T13:01:24;12.93;;;4.13;;
9716;SDS011;4897;43.570;27.832;2022-12-29T13:04:16;9.10;;;3.90;;
9716;SDS011;4897;43.570;27.832;2022-12-29T13:06:55;7.15;;;4.85;;
9716;SDS011;4897;43.570;27.832;2022-12-29T13:09:30;13.10;;;4.57;;
9716;SDS011;4897;43.570;27.832;2022-12-29T13:12:13;8.88;;;5.05;;
9716;SDS011;4897;43.570;27.832;2022-12-29T13:14:54;7.35;;;5.00;;
9716;SDS011;4897;43.570;27.832;2022-12-29T13:17:32;8.18;;;4.13;;
9716;SDS011;4897;43.570;27.832;2022-12-29T13:20:10;10.23;;;4.70;;
9716;SDS011;4897;43.570;27.832;2022-12-29T13:22:47;5.88;;;3.78;;
9716;SDS011;4897;43.570;27.832;2022-12-29T13:25:29;5.97;;;4.00;;
9716;SDS011;4897;43.570;27.832;2022-12-29T13:28:06;5.10;;;3.53;;
9716;SDS011;4897;43.570;27.832;2022-12-29T13:30:41;6.20;;;3.92;;
9716;SDS011;4897;43.570;27.832;2022-12-29T13:33:21;9.70;;;5.05;;
9716;SDS011;4897;43.570;27.832;2022-12-29T13:35:59;7.90;;;4.82;;
9716;SDS011;4897;43.570;27.832;2022-12-29T13:38:30;9.07;;;5.05;;
9716;SDS011;4897;43.570;27.832;2022-12-29T13:41:03;8.30;;;5.13;;
9716;SDS011;4897;43.570;27.832;2022-12-29T13:43:35;8.70;;;4.88;;
9716;SDS011;4897;43.570;27.832;2022-12-29T13:46:07;8.00;;;4.78;;
9716;SDS011;4897;43.570;27.832;2022-12-29T13:48:39;16.85;;;5.55;;
9716;SDS011;4897;43.570;27.832;2022-12-29T13:51:12;6.90;;;4.55;;
9716;SDS011;4897;43.570;27.832;2022-12-29T13:53:42;9.00;;;4.95;;
9716;SDS011;4897;43.570;27.832;2022-12-29T13:56:24;9.65;;;5.32;;
9716;SDS011;4897;43.570;27.832;2022-12-29T13:58:58;10.82;;;5.50;;
9716;SDS011;4897;43.570;27.832;2022-12-29T14:01:33;9.73;;;5.25;;
9716;SDS011;4897;43.570;27.832;2022-12-29T14:04:09;8.82;;;5.88;;
9716;SDS011;4897;43.570;27.832;2022-12-29T14:06:38;12.85;;;5.60;;
9716;SDS011;4897;43.570;27.832;2022-12-29T14:12:19;12.05;;;5.80;;
9716;SDS011;4897;43.570;27.832;2022-12-29T14:14:50;10.50;;;6.60;;
9716;SDS011;4897;43.570;27.832;2022-12-29T14:17:18;10.55;;;5.50;;
9716;SDS011;4897;43.570;27.832;2022-12-29T14:19:47;8.48;;;4.82;;
9716;SDS011;4897;43.570;27.832;2022-12-29T14:22:22;9.02;;;5.25;;
9716;SDS011;4897;43.570;27.832;2022-12-29T14:24:50;11.70;;;5.65;;
9716;SDS011;4897;43.570;27.832;2022-12-29T14:33:25;11.55;;;5.47;;
9716;SDS011;4897;43.570;27.832;2022-12-29T14:35:54;15.90;;;9.40;;
9716;SDS011;4897;43.570;27.832;2022-12-29T14:38:25;36.60;;;19.48;;
9716;SDS011;4897;43.570;27.832;2022-12-29T14:43:57;15.77;;;9.40;;
9716;SDS011;4897;43.570;27.832;2022-12-29T14:46:41;18.15;;;10.60;;
9716;SDS011;4897;43.570;27.832;2022-12-29T14:49:14;15.95;;;9.02;;
9716;SDS011;4897;43.570;27.832;2022-12-29T14:51:44;15.35;;;9.48;;
9716;SDS011;4897;43.570;27.832;2022-12-29T14:57:12;20.00;;;9.45;;
9716;SDS011;4897;43.570;27.832;2022-12-29T14:59:45;17.95;;;10.00;;
9716;SDS011;4897;43.570;27.832;2022-12-29T15:02:15;20.70;;;11.38;;
9716;SDS011;4897;43.570;27.832;2022-12-29T15:04:46;14.93;;;9.40;;
9716;SDS011;4897;43.570;27.832;2022-12-29T15:07:14;16.15;;;9.43;;
9716;SDS011;4897;43.570;27.832;2022-12-29T15:09:44;22.33;;;10.57;;
9716;SDS011;4897;43.570;27.832;2022-12-29T15:12:18;24.08;;;11.32;;
9716;SDS011;4897;43.570;27.832;2022-12-29T15:14:48;25.75;;;12.98;;
9716;SDS011;4897;43.570;27.832;2022-12-29T15:17:23;53.42;;;20.42;;
9716;SDS011;4897;43.570;27.832;2022-12-29T15:19:53;44.47;;;22.50;;
9716;SDS011;4897;43.570;27.832;2022-12-29T15:22:20;72.65;;;30.67;;
9716;SDS011;4897;43.570;27.832;2022-12-29T15:24:48;53.75;;;26.15;;
9716;SDS011;4897;43.570;27.832;2022-12-29T15:27:19;39.78;;;21.77;;
9716;SDS011;4897;43.570;27.832;2022-12-29T15:29:47;40.50;;;21.50;;
9716;SDS011;4897;43.570;27.832;2022-12-29T15:32:18;28.65;;;15.52;;
9716;SDS011;4897;43.570;27.832;2022-12-29T15:34:48;24.50;;;13.30;;
9716;SDS011;4897;43.570;27.832;2022-12-29T15:37:19;19.90;;;11.30;;
9716;SDS011;4897;43.570;27.832;2022-12-29T15:39:48;18.48;;;10.48;;
9716;SDS011;4897;43.570;27.832;2022-12-29T15:42:19;17.63;;;10.68;;
9716;SDS011;4897;43.570;27.832;2022-12-29T15:45:06;26.50;;;10.85;;
9716;SDS011;4897;43.570;27.832;2022-12-29T15:47:37;19.98;;;9.85;;
9716;SDS011;4897;43.570;27.832;2022-12-29T15:50:08;17.05;;;9.93;;